createdAt,value
2019-01-13T00:04:39.118Z,5.33
2019-01-13T00:07:28.593Z,4.67
2019-01-13T00:10:18.085Z,5.00
2019-01-13T00:13:08.025Z,4.40
2019-01-13T00:15:57.527Z,4.60
2019-01-13T00:18:47.487Z,4.60
2019-01-13T00:21:17.950Z,4.70
2019-01-13T00:23:48.887Z,4.40
2019-01-13T00:26:19.534Z,4.10
2019-01-13T00:28:50.338Z,4.27
2019-01-13T00:31:39.765Z,4.07
2019-01-13T00:34:10.503Z,4.60
2019-01-13T00:36:40.839Z,4.57
2019-01-13T00:39:11.210Z,4.40
2019-01-13T00:41:41.537Z,4.47
2019-01-13T00:44:31.024Z,4.33
2019-01-13T00:47:01.379Z,4.70
2019-01-13T00:49:31.768Z,4.73
2019-01-13T00:52:21.197Z,3.87
2019-01-13T00:54:51.830Z,4.30
2019-01-13T00:57:42.031Z,5.70
2019-01-13T01:00:31.480Z,5.07
2019-01-13T01:03:20.909Z,4.77
2019-01-13T01:06:10.374Z,4.63
2019-01-13T01:08:59.771Z,4.60
2019-01-13T01:11:49.581Z,5.00
2019-01-13T01:14:39.096Z,4.77
2019-01-13T01:17:09.728Z,4.37
2019-01-13T01:19:40.632Z,4.30
2019-01-13T01:22:30.091Z,4.40
2019-01-13T01:25:00.463Z,4.70
2019-01-13T01:27:50.505Z,4.33
2019-01-13T01:30:39.939Z,4.40
2019-01-13T01:33:10.551Z,4.17
2019-01-13T01:36:00.388Z,4.03
2019-01-13T01:38:49.876Z,4.27
2019-01-13T01:41:40.257Z,4.23
2019-01-13T01:44:29.829Z,4.00
2019-01-13T01:47:12.571Z,4.10
2019-01-13T01:49:53.125Z,4.63
2019-01-13T01:52:42.709Z,4.17
2019-01-13T01:55:32.177Z,4.23
2019-01-13T01:58:21.985Z,4.70
2019-01-13T02:01:11.412Z,4.73
2019-01-13T02:04:01.184Z,4.37
2019-01-13T02:06:50.846Z,4.00
2019-01-13T02:09:40.401Z,4.60
2019-01-13T02:12:29.847Z,4.77
2019-01-13T02:15:44.826Z,4.23
2019-01-13T02:18:34.285Z,4.67
2019-01-13T02:21:23.796Z,4.87
2019-01-13T02:24:13.376Z,5.07
2019-01-13T02:27:02.856Z,4.60
2019-01-13T02:29:52.621Z,4.70
2019-01-13T02:32:42.103Z,4.77
2019-01-13T02:35:31.973Z,5.00
2019-01-13T02:38:21.444Z,4.70
2019-01-13T02:41:10.927Z,5.47
2019-01-13T02:44:00.414Z,5.43
2019-01-13T02:46:49.877Z,5.70
2019-01-13T02:49:32.075Z,5.47
2019-01-13T02:52:21.516Z,5.67
2019-01-13T02:55:11.205Z,5.97
2019-01-13T02:58:00.672Z,5.57
2019-01-13T03:00:57.033Z,5.63
2019-01-13T03:03:41.666Z,6.20
2019-01-13T03:06:31.182Z,6.17
2019-01-13T03:09:20.800Z,5.90
2019-01-13T03:12:10.541Z,5.23
2019-01-13T03:15:00.020Z,5.73
2019-01-13T03:17:50.074Z,6.30
2019-01-13T03:20:39.587Z,5.40
2019-01-13T03:23:29.036Z,5.60
2019-01-13T03:26:18.550Z,5.30
2019-01-13T03:29:08.404Z,5.63
2019-01-13T03:31:57.853Z,5.30
2019-01-13T03:34:47.333Z,5.60
2019-01-13T03:37:36.777Z,5.97
2019-01-13T03:40:26.587Z,5.37
2019-01-13T03:43:16.321Z,5.37
2019-01-13T03:46:05.860Z,5.23
2019-01-13T03:48:48.756Z,5.30
2019-01-13T03:51:38.183Z,4.90
2019-01-13T03:54:08.655Z,5.67
2019-01-13T03:56:38.988Z,5.03
2019-01-13T03:59:09.375Z,5.50
2019-01-13T04:01:58.835Z,5.47
2019-01-13T04:04:48.313Z,6.17
2019-01-13T04:07:37.738Z,6.63
2019-01-13T04:10:27.271Z,6.43
2019-01-13T04:13:16.774Z,7.83
2019-01-13T04:16:06.574Z,8.13
2019-01-13T04:18:56.607Z,8.30
2019-01-13T04:21:46.080Z,7.80
2019-01-13T04:24:35.571Z,8.20
2019-01-13T04:27:25.118Z,8.33
2019-01-13T04:30:14.696Z,8.20
2019-01-13T04:33:04.198Z,9.03
2019-01-13T04:35:53.747Z,9.93
2019-01-13T04:38:43.170Z,10.10
2019-01-13T04:41:33.259Z,9.87
2019-01-13T04:44:23.164Z,9.90
2019-01-13T04:47:12.629Z,9.63
2019-01-13T04:49:54.868Z,10.43
2019-01-13T04:52:44.350Z,9.60
2019-01-13T04:55:34.118Z,10.53
2019-01-13T04:58:23.612Z,9.93
2019-01-13T05:00:53.965Z,10.20
2019-01-13T05:03:43.433Z,9.63
2019-01-13T05:06:33.337Z,10.53
2019-01-13T05:09:22.852Z,10.67
2019-01-13T05:12:12.310Z,11.23
2019-01-13T05:15:02.076Z,10.77
2019-01-13T05:17:51.961Z,10.70
2019-01-13T05:20:41.428Z,10.47
2019-01-13T05:23:30.967Z,10.90
2019-01-13T05:26:21.201Z,11.00
2019-01-13T05:29:10.658Z,11.00
2019-01-13T05:32:00.081Z,10.63
2019-01-13T05:34:49.613Z,11.80
2019-01-13T05:37:39.393Z,12.00
2019-01-13T05:40:28.897Z,11.47
2019-01-13T05:43:18.337Z,10.83
2019-01-13T05:46:07.814Z,11.60
2019-01-13T05:48:57.622Z,12.20
2019-01-13T05:51:40.355Z,12.63
2019-01-13T05:54:30.257Z,11.27
2019-01-13T05:57:19.840Z,11.90
2019-01-13T06:00:13.100Z,11.50
2019-01-13T06:03:02.545Z,12.17
2019-01-13T06:05:51.981Z,12.90
2019-01-13T06:08:41.427Z,12.20
2019-01-13T06:11:30.891Z,13.30
2019-01-13T06:14:20.334Z,12.70
2019-01-13T06:17:10.096Z,12.83
2019-01-13T06:19:59.986Z,12.57
2019-01-13T06:22:49.744Z,13.07
2019-01-13T06:25:20.285Z,11.67
2019-01-13T06:28:09.728Z,11.70
2019-01-13T06:30:59.189Z,11.40
2019-01-13T06:33:49.237Z,11.43
2019-01-13T06:36:38.710Z,10.27
2019-01-13T06:39:28.417Z,11.07
2019-01-13T06:42:17.839Z,10.03
2019-01-13T06:45:27.681Z,10.70
2019-01-13T06:48:17.116Z,9.40
2019-01-13T06:51:00.121Z,8.83
2019-01-13T06:53:49.520Z,9.17
2019-01-13T06:56:39.363Z,8.93
2019-01-13T06:59:28.821Z,9.53
2019-01-13T07:02:18.964Z,8.23
2019-01-13T07:08:18.146Z,8.37
2019-01-13T07:11:07.571Z,8.43
2019-01-13T07:13:57.168Z,8.83
2019-01-13T07:16:46.911Z,8.47
2019-01-13T07:19:36.504Z,8.27
2019-01-13T07:22:25.967Z,8.57
2019-01-13T07:25:15.457Z,8.23
2019-01-13T07:28:04.956Z,9.27
2019-01-13T07:30:54.473Z,8.53
2019-01-13T07:33:44.217Z,7.77
2019-01-13T07:36:33.738Z,8.67
2019-01-13T07:39:23.186Z,7.57
2019-01-13T07:42:12.688Z,6.57
2019-01-13T07:45:02.415Z,6.63
2019-01-13T07:47:52.709Z,6.90
2019-01-13T07:50:42.244Z,6.97
2019-01-13T07:53:31.961Z,7.03
2019-01-13T07:56:21.451Z,8.50
2019-01-13T07:58:51.751Z,7.77
2019-01-13T08:01:41.481Z,7.27
2019-01-13T08:04:12.101Z,7.53
2019-01-13T08:06:55.602Z,7.30
2019-01-13T08:09:26.026Z,6.77
2019-01-13T08:12:15.681Z,6.47
2019-01-13T08:15:05.437Z,6.23
2019-01-13T08:17:55.064Z,5.53
2019-01-13T08:20:44.564Z,5.97
2019-01-13T08:23:33.981Z,5.70
2019-01-13T08:26:04.330Z,4.73
2019-01-13T08:28:54.087Z,4.83
2019-01-13T08:31:24.499Z,5.23
2019-01-13T08:33:54.814Z,4.67
2019-01-13T08:36:44.315Z,4.40
2019-01-13T08:39:33.321Z,4.80
2019-01-13T08:42:22.314Z,4.00
2019-01-13T08:45:12.377Z,4.27
2019-01-13T08:48:02.161Z,3.87
2019-01-13T08:50:44.597Z,3.93
2019-01-13T08:53:14.930Z,3.10
2019-01-13T08:56:04.568Z,3.30
2019-01-13T08:58:54.158Z,2.77
2019-01-13T09:01:43.582Z,2.67
2019-01-13T09:04:33.059Z,2.53
2019-01-13T09:07:22.739Z,2.40
2019-01-13T09:10:14.178Z,2.30
2019-01-13T09:12:44.585Z,2.30
2019-01-13T09:15:34.144Z,2.20
2019-01-13T09:18:23.616Z,2.37
2019-01-13T09:21:13.104Z,2.47
2019-01-13T09:23:43.578Z,2.53
2019-01-13T09:26:33.728Z,2.53
2019-01-13T09:29:23.478Z,2.60
2019-01-13T09:32:12.968Z,2.40
2019-01-13T09:35:01.918Z,2.70
2019-01-13T09:37:51.070Z,2.40
2019-01-13T09:40:40.805Z,2.30
2019-01-13T09:43:30.527Z,2.10
2019-01-13T09:46:20.393Z,1.90
2019-01-13T09:49:09.815Z,2.37
2019-01-13T09:51:52.210Z,2.03
2019-01-13T09:54:41.918Z,2.13
2019-01-13T09:57:31.705Z,1.90
2019-01-13T10:00:02.394Z,2.40
2019-01-13T10:02:52.139Z,2.10
2019-01-13T10:05:41.610Z,2.10
2019-01-13T10:08:31.042Z,2.10
2019-01-13T10:11:20.529Z,1.67
2019-01-13T10:14:10.225Z,1.57
2019-01-13T10:16:59.667Z,1.80
2019-01-13T10:19:49.134Z,1.57
2019-01-13T10:22:38.643Z,1.80
2019-01-13T10:25:28.094Z,1.87
2019-01-13T10:28:17.806Z,1.30
2019-01-13T10:31:07.233Z,1.53
2019-01-13T10:33:57.071Z,1.40
2019-01-13T10:36:46.697Z,1.23
2019-01-13T10:39:36.682Z,1.77
2019-01-13T10:42:26.125Z,1.80
2019-01-13T10:45:16.255Z,1.80
2019-01-13T10:48:05.995Z,1.90
2019-01-13T10:50:55.452Z,1.70
2019-01-13T10:53:37.279Z,1.70
2019-01-13T10:56:26.770Z,2.10
2019-01-13T10:59:16.317Z,3.23
2019-01-13T11:02:05.773Z,5.00
2019-01-13T11:04:55.652Z,4.83
2019-01-13T11:07:45.440Z,3.23
2019-01-13T11:10:34.905Z,2.23
2019-01-13T11:13:24.527Z,4.53
2019-01-13T11:16:14.007Z,2.20
2019-01-13T11:19:03.491Z,1.60
2019-01-13T11:21:52.961Z,1.30
2019-01-13T11:24:23.371Z,1.80
2019-01-13T11:26:53.712Z,1.70
2019-01-13T11:29:43.312Z,1.60
2019-01-13T11:32:33.210Z,1.80
2019-01-13T11:35:22.732Z,7.90
2019-01-13T11:38:12.310Z,3.53
2019-01-13T11:41:01.883Z,2.93
2019-01-13T11:43:51.331Z,1.63
2019-01-13T11:46:40.800Z,1.40
2019-01-13T11:49:30.307Z,1.50
2019-01-13T11:52:12.218Z,1.20
2019-01-13T11:55:01.969Z,1.93
2019-01-13T11:57:51.512Z,3.80
2019-01-13T12:00:26.004Z,2.37
2019-01-13T12:03:17.099Z,1.70
2019-01-13T12:06:06.871Z,3.33
2019-01-13T12:08:56.302Z,1.57
2019-01-13T12:11:45.826Z,1.50
2019-01-13T12:14:35.273Z,1.30
2019-01-13T12:17:24.864Z,1.50
2019-01-13T12:19:55.148Z,1.00
2019-01-13T12:22:25.480Z,2.13
2019-01-13T12:24:56.101Z,1.40
2019-01-13T12:27:45.576Z,1.70
2019-01-13T12:30:35.112Z,1.40
2019-01-13T12:33:25.513Z,1.67
2019-01-13T12:36:14.959Z,1.90
2019-01-13T12:42:04.511Z,1.50
2019-01-13T12:44:37.144Z,2.10
2019-01-13T12:47:26.713Z,1.57
2019-01-13T12:50:38.036Z,2.87
2019-01-13T12:53:20.561Z,4.43
2019-01-13T12:56:10.085Z,5.83
2019-01-13T12:58:59.943Z,4.70
2019-01-13T13:01:49.400Z,3.43
2019-01-13T13:04:38.874Z,1.90
2019-01-13T13:07:28.568Z,1.60
2019-01-13T13:10:41.391Z,2.10
2019-01-13T13:13:31.193Z,1.70
2019-01-13T13:16:20.733Z,1.93
2019-01-13T13:19:10.176Z,1.90
2019-01-13T13:21:59.751Z,1.60
2019-01-13T13:24:48.666Z,1.60
2019-01-13T13:27:37.591Z,2.17
2019-01-13T13:30:27.132Z,1.80
2019-01-13T13:33:16.998Z,2.40
2019-01-13T13:36:26.970Z,2.80
2019-01-13T13:38:57.545Z,5.77
2019-01-13T13:41:47.047Z,4.20
2019-01-13T13:44:36.544Z,3.83
2019-01-13T13:47:33.174Z,6.10
2019-01-13T13:50:23.974Z,4.90
2019-01-13T13:53:06.986Z,3.10
2019-01-13T13:55:56.709Z,3.70
2019-01-13T13:58:46.378Z,3.87
2019-01-13T14:01:35.814Z,4.87
2019-01-13T14:04:25.279Z,4.03
2019-01-13T14:07:14.732Z,4.80
2019-01-13T14:10:04.494Z,3.40
2019-01-13T14:12:53.921Z,3.97
2019-01-13T14:15:43.470Z,2.63
2019-01-13T14:18:32.907Z,3.13
2019-01-13T14:21:22.324Z,3.90
2019-01-13T14:24:12.183Z,3.53
2019-01-13T14:27:01.920Z,2.83
2019-01-13T14:29:52.091Z,3.37
2019-01-13T14:32:41.574Z,3.13
2019-01-13T14:35:31.036Z,6.13
2019-01-13T14:38:13.344Z,2.50
2019-01-13T14:41:03.162Z,2.50
2019-01-13T14:43:52.903Z,2.20
2019-01-13T14:46:42.487Z,2.53
2019-01-13T14:49:32.192Z,2.00
2019-01-13T14:52:14.498Z,3.60
2019-01-13T14:55:03.931Z,1.83
2019-01-13T14:57:53.739Z,1.70
2019-01-13T15:00:43.186Z,2.60
2019-01-13T15:03:32.963Z,1.70
2019-01-13T15:06:22.954Z,1.73
2019-01-13T15:09:12.555Z,1.70
2019-01-13T15:12:01.996Z,1.73
2019-01-13T15:14:51.646Z,1.80
2019-01-13T15:17:41.104Z,2.67
2019-01-13T15:20:16.251Z,2.83
2019-01-13T15:23:05.706Z,2.43
2019-01-13T15:25:55.132Z,2.60
2019-01-13T15:28:26.176Z,3.00
2019-01-13T15:30:56.924Z,2.80
2019-01-13T15:33:27.589Z,4.37
2019-01-13T15:36:17.016Z,3.10
2019-01-13T15:38:47.818Z,3.00
2019-01-13T15:41:18.487Z,4.07
2019-01-13T15:43:48.827Z,3.53
2019-01-13T15:46:19.254Z,4.97
2019-01-13T15:48:49.835Z,3.70
2019-01-13T15:51:20.220Z,3.53
2019-01-13T15:53:50.850Z,3.60
2019-01-13T15:56:21.205Z,4.27
2019-01-13T15:58:51.911Z,3.90
2019-01-13T16:01:22.304Z,3.77
2019-01-13T16:03:53.055Z,3.47
2019-01-13T16:06:42.503Z,3.47
2019-01-13T16:09:31.960Z,2.93
2019-01-13T16:12:21.487Z,4.00
2019-01-13T16:15:11.482Z,3.60
2019-01-13T16:18:00.916Z,3.43
2019-01-13T16:20:50.329Z,3.50
2019-01-13T16:23:39.894Z,3.53
2019-01-13T16:26:29.586Z,2.90
2019-01-13T16:29:19.040Z,3.17
2019-01-13T16:32:08.510Z,4.60
2019-01-13T16:34:58.389Z,3.70
2019-01-13T16:37:47.837Z,2.50
2019-01-13T16:40:37.135Z,3.33
2019-01-13T16:43:26.598Z,3.23
2019-01-13T16:45:57.294Z,3.07
2019-01-13T16:48:46.700Z,2.73
2019-01-13T16:51:36.286Z,4.93
2019-01-13T16:54:25.693Z,3.97
2019-01-13T16:57:15.125Z,2.53
2019-01-13T17:03:16.130Z,1.20
2019-01-13T17:06:06.018Z,1.57
2019-01-13T17:08:55.449Z,1.30
2019-01-13T17:11:45.345Z,1.33
2019-01-13T17:14:35.131Z,1.33
2019-01-13T17:17:24.582Z,1.40
2019-01-13T17:20:54.598Z,1.33
2019-01-13T17:23:44.580Z,1.30
2019-01-13T17:26:34.409Z,1.70
2019-01-13T17:29:04.781Z,1.23
2019-01-13T17:31:54.613Z,1.67
2019-01-13T17:34:44.098Z,1.57
2019-01-13T17:37:33.823Z,1.70
2019-01-13T17:40:24.168Z,1.70
2019-01-13T17:43:13.950Z,1.77
2019-01-13T17:46:03.728Z,2.00
2019-01-13T17:48:53.233Z,2.03
2019-01-13T17:51:35.625Z,1.77
2019-01-13T17:54:25.334Z,1.57
2019-01-13T17:56:55.723Z,1.80
2019-01-13T17:59:45.367Z,1.10
2019-01-13T18:02:34.851Z,1.40
2019-01-13T18:05:24.312Z,1.60
2019-01-13T18:08:13.889Z,1.30
2019-01-13T18:11:03.294Z,1.63
2019-01-13T18:13:34.028Z,1.40
2019-01-13T18:16:23.710Z,1.30
2019-01-13T18:19:13.195Z,1.30
2019-01-13T18:22:02.965Z,2.00
2019-01-13T18:24:52.828Z,2.10
2019-01-13T18:27:42.251Z,2.27
2019-01-13T18:30:31.836Z,2.30
2019-01-13T18:33:20.797Z,2.70
2019-01-13T18:36:09.870Z,4.77
2019-01-13T18:38:59.324Z,2.73
2019-01-13T18:41:48.896Z,3.20
2019-01-13T18:44:38.358Z,2.53
2019-01-13T18:47:27.852Z,2.40
2019-01-13T18:50:18.870Z,2.77
2019-01-13T18:53:02.426Z,2.53
2019-01-13T18:55:51.893Z,2.67
2019-01-13T18:58:41.384Z,2.47
2019-01-13T19:01:30.813Z,2.43
2019-01-13T19:04:20.878Z,2.80
2019-01-13T19:07:10.784Z,2.87
2019-01-13T19:10:00.531Z,2.70
2019-01-13T19:12:54.474Z,3.63
2019-01-13T19:15:44.536Z,2.83
2019-01-13T19:18:34.246Z,2.93
2019-01-13T19:21:23.683Z,2.50
2019-01-13T19:24:13.410Z,2.80
2019-01-13T19:27:03.639Z,3.17
2019-01-13T19:29:53.917Z,3.60
2019-01-13T19:32:43.657Z,3.27
2019-01-13T19:35:33.895Z,2.60
2019-01-13T19:38:23.662Z,2.30
2019-01-13T19:41:14.703Z,1.70
2019-01-13T19:44:04.962Z,1.93
2019-01-13T19:46:54.407Z,2.07
2019-01-13T19:49:44.002Z,1.93
2019-01-13T19:52:26.278Z,2.80
2019-01-13T19:55:37.343Z,3.33
2019-01-13T20:01:08.976Z,2.20
2019-01-13T20:03:58.646Z,2.20
2019-01-13T20:06:48.258Z,2.90
2019-01-13T20:09:38.013Z,2.87
2019-01-13T20:12:27.469Z,2.80
2019-01-13T20:15:17.133Z,3.33
2019-01-13T20:18:06.583Z,2.70
2019-01-13T20:20:56.111Z,3.13
2019-01-13T20:23:45.554Z,3.50
2019-01-13T20:26:35.502Z,3.40
2019-01-13T20:29:25.002Z,3.97
2019-01-13T20:32:14.451Z,3.40
2019-01-13T20:35:04.133Z,3.77
2019-01-13T20:37:53.643Z,4.50
2019-01-13T20:40:43.067Z,3.73
2019-01-13T20:43:32.588Z,3.40
2019-01-13T20:46:22.335Z,3.20
2019-01-13T20:48:52.967Z,3.43
2019-01-13T20:51:23.948Z,3.17
2019-01-13T20:54:13.716Z,3.80
2019-01-13T20:57:03.421Z,3.53
2019-01-13T20:59:53.170Z,3.17
2019-01-13T21:02:42.630Z,3.57
2019-01-13T21:05:32.329Z,3.83
2019-01-13T21:08:22.164Z,2.90
2019-01-13T21:11:11.910Z,3.60
2019-01-13T21:14:01.321Z,3.53
2019-01-13T21:16:51.098Z,3.40
2019-01-13T21:19:41.079Z,4.30
2019-01-13T21:22:30.865Z,3.50
2019-01-13T21:25:20.254Z,3.27
2019-01-13T21:28:09.699Z,3.63
2019-01-13T21:30:40.080Z,3.37
2019-01-13T21:33:29.133Z,3.20
2019-01-13T21:36:00.753Z,2.83
2019-01-13T21:38:43.682Z,3.10
2019-01-13T21:41:33.478Z,3.63
2019-01-13T21:44:03.882Z,3.30
2019-01-13T21:46:53.508Z,3.60
2019-01-13T21:49:42.964Z,3.53
2019-01-13T21:52:13.383Z,2.97
2019-01-13T21:55:02.846Z,3.23
2019-01-13T21:57:52.461Z,3.50
2019-01-13T22:00:42.182Z,3.23
2019-01-13T22:03:31.699Z,4.03
2019-01-13T22:06:21.172Z,3.97
2019-01-13T22:09:12.505Z,3.40
2019-01-13T22:12:01.988Z,3.90
2019-01-13T22:14:51.405Z,3.17
2019-01-13T22:17:40.915Z,3.87
2019-01-13T22:20:30.763Z,3.33
2019-01-13T22:23:01.159Z,3.50
2019-01-13T22:25:31.803Z,3.90
2019-01-13T22:28:21.245Z,4.07
2019-01-13T22:31:10.730Z,3.83
2019-01-13T22:34:00.485Z,4.57
2019-01-13T22:36:49.983Z,4.17
2019-01-13T22:39:39.763Z,4.47
2019-01-13T22:42:29.474Z,3.57
2019-01-13T22:45:21.340Z,3.20
2019-01-13T22:48:30.111Z,3.40
2019-01-13T22:51:19.542Z,3.50
2019-01-13T22:54:09.319Z,3.83
2019-01-13T22:56:59.102Z,4.53
2019-01-13T22:59:48.535Z,4.00
2019-01-13T23:02:37.999Z,4.47
2019-01-13T23:05:08.422Z,4.63
2019-01-13T23:07:39.228Z,3.77
2019-01-13T23:10:09.709Z,3.67
2019-01-13T23:12:40.522Z,4.17
2019-01-13T23:15:10.893Z,3.53
2019-01-13T23:18:00.324Z,4.70
2019-01-13T23:20:31.108Z,3.80
2019-01-13T23:23:02.222Z,4.13
2019-01-13T23:25:51.718Z,3.43
2019-01-13T23:28:22.153Z,3.93
2019-01-13T23:31:11.625Z,3.90
2019-01-13T23:34:01.405Z,3.47
2019-01-13T23:36:31.799Z,3.47
2019-01-13T23:39:02.183Z,3.63
2019-01-13T23:41:51.690Z,4.00
2019-01-13T23:44:41.129Z,3.50
2019-01-13T23:47:31.477Z,3.60
2019-01-13T23:50:20.971Z,3.80
2019-01-13T23:53:03.430Z,3.60
2019-01-13T23:55:52.899Z,4.70
2019-01-13T23:58:42.379Z,3.40
